Serval — J8B4154 — position and weather

sailwx.info

Track history (hours):
 
Tides and Currents Weather Stations Pressure Air Temp Water Temp Dewpoint Dewpoint Depression Visibility Wind Speed Wind Dir Waves Ship Positions

Serval

Last reported at 2016-Dec-06 21:33 UTC. Time now 2016-Dec-06 21:54 UTC.
Position N 54°27' E 012°14'.

Length 30 m; draft 5 m.

Type: Tow > 200 m length. MMSI: 377103000.

Date/timePositionNaut miles runAvg speedWind from/ knotsBaromVisibWave heightAir tempDewpointWater temp
2016-Dec-06 21:33N 54°27' E 012°14'8 6.8
2016-Dec-06 20:27N 54°21' E 012°06'11 3.7
2016-Dec-06 17:22N 54°10' E 012°06'0 0.0
2016-Dec-06 13:31N 54°10' E 012°06'0 0.0
2016-Dec-06 11:28N 54°10' E 012°06'0 0.0
2016-Dec-06 09:31N 54°10' E 012°06'0 0.0
2016-Dec-06 08:16N 54°09' E 012°06'2 2.7
2016-Dec-06 07:33N 54°11' E 012°05'9 4.5
2016-Dec-06 05:31N 54°20' E 011°58'3 2.8
2016-Dec-06 04:33N 54°22' E 011°58'4 2.9
2016-Dec-06 03:15N 54°26' E 012°00'3 3.3
2016-Dec-06 02:16N 54°26' E 012°06'2 3.4
2016-Dec-06 01:33N 54°27' E 012°09'4 3.5
2016-Dec-06 00:33N 54°31' E 012°12'4 3.6
2016-Dec-05 23:31N 54°34' E 012°13'3 3.4
2016-Dec-05 22:33N 54°37' E 012°16'4 3.5
2016-Dec-05 21:33N 54°39' E 012°21'4 3.7
2016-Dec-05 20:33N 54°41' E 012°26'4 3.8
2016-Dec-05 19:33N 54°43' E 012°32'196 4.4
2016-Dec-03 23:08N 54°57' E 018°12'3 5.0
2016-Dec-03 22:31N 54°57' E 018°18'5 4.8
2016-Dec-03 21:33N 54°57' E 018°26'4 4.5
2016-Dec-03 20:33N 54°57' E 018°34'4 3.8
2016-Dec-03 19:33N 54°55' E 018°39'3 3.4
2016-Dec-03 18:33N 54°53' E 018°44'3 3.2
2016-Dec-03 17:33N 54°51' E 018°48'3 3.1
2016-Dec-03 16:33N 54°49' E 018°53'3 3.2
2016-Dec-03 15:33N 54°47' E 018°57'3 3.1
2016-Dec-03 14:33N 54°44' E 019°00'3 3.4
2016-Dec-03 13:33N 54°41' E 018°58'4 3.7
2016-Dec-03 12:33N 54°38' E 018°56'4 3.7
2016-Dec-03 11:33N 54°34' E 018°53'5 4.7
2016-Dec-03 10:33N 54°31' E 018°47'5 5.3
2016-Dec-03 09:33N 54°27' E 018°41'4 3.8
2016-Dec-03 08:33N 54°23' E 018°40'1 1.1
2016-Dec-03 07:31N 54°22' E 018°39'0 0.0
2016-Dec-03 06:31N 54°22' E 018°39'0 0.0
2016-Dec-03 05:31N 54°22' E 018°39'0 0.0
2016-Dec-03 04:31N 54°22' E 018°39'0 0.0
2016-Dec-03 03:31N 54°22' E 018°39'0 0.0
2016-Dec-03 02:31N 54°22' E 018°39'0 0.0
2016-Dec-03 01:31N 54°22' E 018°39'0 0.0
2016-Dec-03 00:31N 54°22' E 018°39'0 0.0
2016-Dec-02 23:31N 54°22' E 018°39'0 0.0
2016-Dec-02 22:31N 54°22' E 018°39'0 0.0
2016-Dec-02 21:31N 54°22' E 018°39'0 0.0
2016-Dec-02 20:31N 54°22' E 018°39'0 0.0
2016-Dec-02 19:31N 54°22' E 018°39'0 0.0
2016-Dec-02 18:31N 54°22' E 018°39'0 0.0
2016-Dec-02 17:31N 54°22' E 018°39'0 0.0
2016-Dec-02 16:31N 54°22' E 018°39'0 0.0
2016-Dec-02 15:31N 54°22' E 018°39'0 0.0
2016-Dec-02 14:34N 54°22' E 018°39'0 0.0
2016-Dec-02 13:31N 54°22' E 018°39'0 0.0
2016-Dec-02 12:34N 54°22' E 018°39'0 0.0
2016-Dec-02 11:34N 54°22' E 018°39'0 0.1
2016-Dec-02 10:31N 54°22' E 018°39'0 0.0
2016-Dec-02 09:34N 54°22' E 018°39'0 0.0
2016-Dec-02 08:34N 54°22' E 018°39'0 0.0
2016-Dec-02 07:34N 54°22' E 018°39'0 0.0
2016-Dec-02 06:34N 54°22' E 018°39'0 0.0
2016-Dec-02 05:34N 54°22' E 018°39'0 0.0
2016-Dec-02 04:19N 54°22' E 018°39'0 0.0
2016-Dec-02 03:25N 54°22' E 018°39'0 0.0
2016-Dec-02 02:31N 54°22' E 018°39'0 0.0
2016-Dec-02 01:34N 54°22' E 018°39'0 0.0
2016-Dec-02 00:34N 54°22' E 018°39'0 0.0
2016-Dec-01 23:34N 54°22' E 018°39'0 0.0
2016-Dec-01 22:31N 54°22' E 018°39'0 0.0
2016-Dec-01 20:22N 54°22' E 018°39'0 0.0
2016-Dec-01 19:34N 54°22' E 018°39'0 0.0
2016-Dec-01 18:34N 54°22' E 018°39'0 0.0
2016-Dec-01 17:34N 54°22' E 018°39'0 0.0
2016-Dec-01 16:34N 54°22' E 018°39'0 0.0
2016-Dec-01 15:34N 54°22' E 018°39'0 0.0
2016-Dec-01 14:34N 54°22' E 018°39'0 0.0
2016-Dec-01 13:34N 54°22' E 018°39'0 0.0
2016-Dec-01 12:34N 54°22' E 018°39'0 0.0
2016-Dec-01 11:30N 54°22' E 018°39'0 0.0
2016-Dec-01 10:33N 54°22' E 018°39'0 0.0
2016-Dec-01 09:33N 54°22' E 018°39'2 2.3
2016-Dec-01 08:33N 54°25' E 018°40'7 6.6
2016-Dec-01 07:34N 54°30' E 018°35'2 1.8
2016-Dec-01 06:33N 54°32' E 018°33'0 0.0
2016-Dec-01 05:33N 54°32' E 018°33'0 0.0
2016-Dec-01 04:33N 54°32' E 018°33'0 0.0
2016-Dec-01 03:33N 54°32' E 018°33'0 0.0
2016-Dec-01 02:33N 54°32' E 018°33'0 0.0
2016-Dec-01 01:33N 54°32' E 018°33'0 0.0
2016-Dec-01 00:33N 54°32' E 018°33'0 0.0
2016-Nov-30 23:33N 54°32' E 018°33'0 0.0
2016-Nov-30 22:33N 54°32' E 018°33'0 0.0
2016-Nov-30 21:33N 54°32' E 018°33'0 0.0
2016-Nov-30 20:33N 54°32' E 018°33'0 0.0
2016-Nov-30 19:33N 54°32' E 018°33'0 0.0
2016-Nov-30 18:33N 54°32' E 018°33'0 0.0
2016-Nov-30 17:33N 54°32' E 018°33'0 0.0
2016-Nov-30 16:33N 54°32' E 018°33'0 0.0
2016-Nov-30 15:33N 54°32' E 018°33'0 0.0
2016-Nov-30 14:33N 54°32' E 018°33'0 0.0
2016-Nov-30 13:33N 54°32' E 018°33'0 0.0
2016-Nov-30 12:33N 54°32' E 018°33'0 0.0
2016-Nov-30 11:33N 54°32' E 018°33'0 0.0
2016-Nov-30 10:33N 54°32' E 018°33'0 0.0
2016-Nov-30 09:33N 54°32' E 018°33'0 0.0
2016-Nov-30 08:33N 54°32' E 018°33'0 0.0
2016-Nov-30 07:33N 54°32' E 018°33'0 0.0
2016-Nov-30 06:33N 54°32' E 018°33'0 0.0
2016-Nov-30 05:33N 54°32' E 018°33'0 0.0
2016-Nov-30 04:33N 54°32' E 018°33'0 0.0
2016-Nov-30 03:33N 54°32' E 018°33'0 0.0
2016-Nov-30 02:33N 54°32' E 018°33'0 0.0
2016-Nov-30 01:33N 54°32' E 018°33'0 0.0
2016-Nov-30 00:33N 54°32' E 018°33'0 0.0
2016-Nov-29 23:33N 54°32' E 018°33'0 0.0
2016-Nov-29 22:33N 54°32' E 018°33'0 0.0
2016-Nov-29 21:33N 54°32' E 018°33'0 0.0
2016-Nov-29 20:33N 54°32' E 018°33'0 0.0
2016-Nov-29 19:33N 54°32' E 018°33'0 0.0
2016-Nov-29 18:33N 54°32' E 018°33'0 0.0
2016-Nov-29 17:33N 54°32' E 018°33'0 0.0
2016-Nov-29 16:33N 54°32' E 018°33'0 0.0
2016-Nov-29 15:33N 54°32' E 018°33'0 0.0
2016-Nov-29 14:31N 54°32' E 018°33'0 0.0
2016-Nov-29 13:31N 54°32' E 018°33'0 0.0
2016-Nov-29 12:31N 54°32' E 018°33'0 0.0
2016-Nov-29 11:31N 54°32' E 018°33'0 0.0
2016-Nov-29 10:31N 54°32' E 018°33'0 0.0
2016-Nov-29 09:31N 54°32' E 018°33'0 0.0
2016-Nov-29 08:31N 54°32' E 018°33'0 0.0
2016-Nov-29 07:31N 54°32' E 018°33'0 0.0
2016-Nov-29 06:31N 54°32' E 018°33'0 0.0
2016-Nov-29 05:31N 54°32' E 018°33'0 0.0
2016-Nov-29 04:31N 54°32' E 018°33'0 0.0
2016-Nov-29 03:31N 54°32' E 018°33'0 0.0
2016-Nov-29 02:31N 54°32' E 018°33'0 0.0
2016-Nov-29 01:31N 54°32' E 018°33'0 0.0
2016-Nov-29 00:31N 54°32' E 018°33'0 0.0
2016-Nov-28 23:31N 54°32' E 018°33'0 0.0
2016-Nov-28 22:28N 54°32' E 018°33'0 0.0
2016-Nov-28 21:31N 54°32' E 018°33'0 0.0
2016-Nov-28 20:31N 54°32' E 018°33'0 0.0
2016-Nov-28 19:31N 54°32' E 018°33'0 0.0
2016-Nov-28 18:31N 54°32' E 018°33'0 0.0
2016-Nov-28 17:31N 54°32' E 018°33'0 0.0
2016-Nov-28 16:31N 54°32' E 018°33'0 0.0
2016-Nov-28 15:31N 54°32' E 018°33'0 0.0
2016-Nov-28 14:31N 54°32' E 018°33'0 0.0
2016-Nov-28 13:31N 54°32' E 018°33'0 0.0
2016-Nov-28 12:31N 54°32' E 018°33'0 0.0
2016-Nov-28 11:31N 54°32' E 018°33'0 0.0
2016-Nov-28 10:31N 54°32' E 018°33'0 0.0
2016-Nov-28 09:31N 54°32' E 018°33'0 0.0
2016-Nov-28 08:31N 54°32' E 018°33'0 0.0
2016-Nov-28 07:31N 54°32' E 018°33'0 0.0
2016-Nov-28 06:31N 54°32' E 018°33'0 0.0
2016-Nov-28 05:31N 54°32' E 018°33'0 0.0
2016-Nov-28 04:31N 54°32' E 018°33'0 0.0
2016-Nov-28 03:31N 54°32' E 018°33'0 0.0
2016-Nov-28 02:31N 54°32' E 018°33'0 0.0
2016-Nov-28 01:31N 54°32' E 018°33'0 0.0
2016-Nov-28 00:31N 54°32' E 018°33'0 0.0
2016-Nov-27 23:31N 54°32' E 018°33'0 0.0
2016-Nov-27 22:31N 54°32' E 018°33'0 0.0
2016-Nov-27 21:31N 54°32' E 018°33'0 0.0
2016-Nov-27 20:31N 54°32' E 018°33'0 0.0
2016-Nov-27 19:31N 54°32' E 018°33'0 0.0
2016-Nov-27 18:31N 54°32' E 018°33'0 0.0
2016-Nov-27 17:31N 54°32' E 018°33'0 0.0
2016-Nov-27 16:31N 54°32' E 018°33'0 0.0
2016-Nov-27 15:31N 54°32' E 018°33'0 0.0
2016-Nov-27 14:31N 54°32' E 018°33'0 0.0
2016-Nov-27 13:31N 54°32' E 018°33'0 0.0
2016-Nov-27 12:31N 54°32' E 018°33'0 0.0
2016-Nov-27 11:31N 54°32' E 018°33'0 0.0
2016-Nov-27 10:31N 54°32' E 018°33'0 0.0
2016-Nov-27 09:31N 54°32' E 018°33'0 0.0
2016-Nov-27 08:31N 54°32' E 018°33'0 0.0
2016-Nov-27 07:31N 54°32' E 018°33'0 0.0
2016-Nov-27 06:31N 54°32' E 018°33'0 0.0
2016-Nov-27 05:31N 54°32' E 018°33'0 0.0
2016-Nov-27 04:31N 54°32' E 018°33'0 0.0
2016-Nov-27 03:31N 54°32' E 018°33'0 0.0
2016-Nov-27 02:31N 54°32' E 018°33'0 0.0
2016-Nov-27 01:31N 54°32' E 018°33'0 0.0
2016-Nov-27 00:31N 54°32' E 018°33'0 0.0
2016-Nov-26 23:31N 54°32' E 018°33'0 0.0
2016-Nov-26 22:31N 54°32' E 018°33'  
Track history (hours):
 
Tides and Currents Weather Stations Pressure Air Temp Water Temp Dewpoint Dewpoint Depression Visibility Wind Speed Wind Dir Waves Ship Positions

Serval

Last reported at 2016-Dec-06 21:33 UTC. Time now 2016-Dec-06 21:54 UTC.
Position N 54°27' E 012°14'.

Length 30 m; draft 5 m.

Type: Tow > 200 m length. MMSI: 377103000.

Date/timePositionNaut miles runAvg speedWind from/ knotsBaromVisibWave heightAir tempDewpointWater temp
2016-Dec-06 21:33N 54°27' E 012°14'8 6.8
2016-Dec-06 20:27N 54°21' E 012°06'11 3.7
2016-Dec-06 17:22N 54°10' E 012°06'0 0.0
2016-Dec-06 13:31N 54°10' E 012°06'0 0.0
2016-Dec-06 11:28N 54°10' E 012°06'0 0.0
2016-Dec-06 09:31N 54°10' E 012°06'0 0.0
2016-Dec-06 08:16N 54°09' E 012°06'2 2.7
2016-Dec-06 07:33N 54°11' E 012°05'9 4.5
2016-Dec-06 05:31N 54°20' E 011°58'3 2.8
2016-Dec-06 04:33N 54°22' E 011°58'4 2.9
2016-Dec-06 03:15N 54°26' E 012°00'3 3.3
2016-Dec-06 02:16N 54°26' E 012°06'2 3.4
2016-Dec-06 01:33N 54°27' E 012°09'4 3.5
2016-Dec-06 00:33N 54°31' E 012°12'4 3.6
2016-Dec-05 23:31N 54°34' E 012°13'3 3.4
2016-Dec-05 22:33N 54°37' E 012°16'4 3.5
2016-Dec-05 21:33N 54°39' E 012°21'4 3.7
2016-Dec-05 20:33N 54°41' E 012°26'4 3.8
2016-Dec-05 19:33N 54°43' E 012°32'196 4.4
2016-Dec-03 23:08N 54°57' E 018°12'3 5.0
2016-Dec-03 22:31N 54°57' E 018°18'5 4.8
2016-Dec-03 21:33N 54°57' E 018°26'4 4.5
2016-Dec-03 20:33N 54°57' E 018°34'4 3.8
2016-Dec-03 19:33N 54°55' E 018°39'3 3.4
2016-Dec-03 18:33N 54°53' E 018°44'3 3.2
2016-Dec-03 17:33N 54°51' E 018°48'3 3.1
2016-Dec-03 16:33N 54°49' E 018°53'3 3.2
2016-Dec-03 15:33N 54°47' E 018°57'3 3.1
2016-Dec-03 14:33N 54°44' E 019°00'3 3.4
2016-Dec-03 13:33N 54°41' E 018°58'4 3.7
2016-Dec-03 12:33N 54°38' E 018°56'4 3.7
2016-Dec-03 11:33N 54°34' E 018°53'5 4.7
2016-Dec-03 10:33N 54°31' E 018°47'5 5.3
2016-Dec-03 09:33N 54°27' E 018°41'4 3.8
2016-Dec-03 08:33N 54°23' E 018°40'1 1.1
2016-Dec-03 07:31N 54°22' E 018°39'0 0.0
2016-Dec-03 06:31N 54°22' E 018°39'0 0.0
2016-Dec-03 05:31N 54°22' E 018°39'0 0.0
2016-Dec-03 04:31N 54°22' E 018°39'0 0.0
2016-Dec-03 03:31N 54°22' E 018°39'0 0.0
2016-Dec-03 02:31N 54°22' E 018°39'0 0.0
2016-Dec-03 01:31N 54°22' E 018°39'0 0.0
2016-Dec-03 00:31N 54°22' E 018°39'0 0.0
2016-Dec-02 23:31N 54°22' E 018°39'0 0.0
2016-Dec-02 22:31N 54°22' E 018°39'0 0.0
2016-Dec-02 21:31N 54°22' E 018°39'0 0.0
2016-Dec-02 20:31N 54°22' E 018°39'0 0.0
2016-Dec-02 19:31N 54°22' E 018°39'0 0.0
2016-Dec-02 18:31N 54°22' E 018°39'0 0.0
2016-Dec-02 17:31N 54°22' E 018°39'0 0.0
2016-Dec-02 16:31N 54°22' E 018°39'0 0.0
2016-Dec-02 15:31N 54°22' E 018°39'0 0.0
2016-Dec-02 14:34N 54°22' E 018°39'0 0.0
2016-Dec-02 13:31N 54°22' E 018°39'0 0.0
2016-Dec-02 12:34N 54°22' E 018°39'0 0.0
2016-Dec-02 11:34N 54°22' E 018°39'0 0.1
2016-Dec-02 10:31N 54°22' E 018°39'0 0.0
2016-Dec-02 09:34N 54°22' E 018°39'0 0.0
2016-Dec-02 08:34N 54°22' E 018°39'0 0.0
2016-Dec-02 07:34N 54°22' E 018°39'0 0.0
2016-Dec-02 06:34N 54°22' E 018°39'0 0.0
2016-Dec-02 05:34N 54°22' E 018°39'0 0.0
2016-Dec-02 04:19N 54°22' E 018°39'0 0.0
2016-Dec-02 03:25N 54°22' E 018°39'0 0.0
2016-Dec-02 02:31N 54°22' E 018°39'0 0.0
2016-Dec-02 01:34N 54°22' E 018°39'0 0.0
2016-Dec-02 00:34N 54°22' E 018°39'0 0.0
2016-Dec-01 23:34N 54°22' E 018°39'0 0.0
2016-Dec-01 22:31N 54°22' E 018°39'0 0.0
2016-Dec-01 20:22N 54°22' E 018°39'0 0.0
2016-Dec-01 19:34N 54°22' E 018°39'0 0.0
2016-Dec-01 18:34N 54°22' E 018°39'0 0.0
2016-Dec-01 17:34N 54°22' E 018°39'0 0.0
2016-Dec-01 16:34N 54°22' E 018°39'0 0.0
2016-Dec-01 15:34N 54°22' E 018°39'0 0.0
2016-Dec-01 14:34N 54°22' E 018°39'0 0.0
2016-Dec-01 13:34N 54°22' E 018°39'0 0.0
2016-Dec-01 12:34N 54°22' E 018°39'0 0.0
2016-Dec-01 11:30N 54°22' E 018°39'0 0.0
2016-Dec-01 10:33N 54°22' E 018°39'0 0.0
2016-Dec-01 09:33N 54°22' E 018°39'2 2.3
2016-Dec-01 08:33N 54°25' E 018°40'7 6.6
2016-Dec-01 07:34N 54°30' E 018°35'2 1.8
2016-Dec-01 06:33N 54°32' E 018°33'0 0.0
2016-Dec-01 05:33N 54°32' E 018°33'0 0.0
2016-Dec-01 04:33N 54°32' E 018°33'0 0.0
2016-Dec-01 03:33N 54°32' E 018°33'0 0.0
2016-Dec-01 02:33N 54°32' E 018°33'0 0.0
2016-Dec-01 01:33N 54°32' E 018°33'0 0.0
2016-Dec-01 00:33N 54°32' E 018°33'0 0.0
2016-Nov-30 23:33N 54°32' E 018°33'0 0.0
2016-Nov-30 22:33N 54°32' E 018°33'0 0.0
2016-Nov-30 21:33N 54°32' E 018°33'0 0.0
2016-Nov-30 20:33N 54°32' E 018°33'0 0.0
2016-Nov-30 19:33N 54°32' E 018°33'0 0.0
2016-Nov-30 18:33N 54°32' E 018°33'0 0.0
2016-Nov-30 17:33N 54°32' E 018°33'0 0.0
2016-Nov-30 16:33N 54°32' E 018°33'0 0.0
2016-Nov-30 15:33N 54°32' E 018°33'0 0.0
2016-Nov-30 14:33N 54°32' E 018°33'0 0.0
2016-Nov-30 13:33N 54°32' E 018°33'0 0.0
2016-Nov-30 12:33N 54°32' E 018°33'0 0.0
2016-Nov-30 11:33N 54°32' E 018°33'0 0.0
2016-Nov-30 10:33N 54°32' E 018°33'0 0.0
2016-Nov-30 09:33N 54°32' E 018°33'0 0.0
2016-Nov-30 08:33N 54°32' E 018°33'0 0.0
2016-Nov-30 07:33N 54°32' E 018°33'0 0.0
2016-Nov-30 06:33N 54°32' E 018°33'0 0.0
2016-Nov-30 05:33N 54°32' E 018°33'0 0.0
2016-Nov-30 04:33N 54°32' E 018°33'0 0.0
2016-Nov-30 03:33N 54°32' E 018°33'0 0.0
2016-Nov-30 02:33N 54°32' E 018°33'0 0.0
2016-Nov-30 01:33N 54°32' E 018°33'0 0.0
2016-Nov-30 00:33N 54°32' E 018°33'0 0.0
2016-Nov-29 23:33N 54°32' E 018°33'0 0.0
2016-Nov-29 22:33N 54°32' E 018°33'0 0.0
2016-Nov-29 21:33N 54°32' E 018°33'0 0.0
2016-Nov-29 20:33N 54°32' E 018°33'0 0.0
2016-Nov-29 19:33N 54°32' E 018°33'0 0.0
2016-Nov-29 18:33N 54°32' E 018°33'0 0.0
2016-Nov-29 17:33N 54°32' E 018°33'0 0.0
2016-Nov-29 16:33N 54°32' E 018°33'0 0.0
2016-Nov-29 15:33N 54°32' E 018°33'0 0.0
2016-Nov-29 14:31N 54°32' E 018°33'0 0.0
2016-Nov-29 13:31N 54°32' E 018°33'0 0.0
2016-Nov-29 12:31N 54°32' E 018°33'0 0.0
2016-Nov-29 11:31N 54°32' E 018°33'0 0.0
2016-Nov-29 10:31N 54°32' E 018°33'0 0.0
2016-Nov-29 09:31N 54°32' E 018°33'0 0.0
2016-Nov-29 08:31N 54°32' E 018°33'0 0.0
2016-Nov-29 07:31N 54°32' E 018°33'0 0.0
2016-Nov-29 06:31N 54°32' E 018°33'0 0.0
2016-Nov-29 05:31N 54°32' E 018°33'0 0.0
2016-Nov-29 04:31N 54°32' E 018°33'0 0.0
2016-Nov-29 03:31N 54°32' E 018°33'0 0.0
2016-Nov-29 02:31N 54°32' E 018°33'0 0.0
2016-Nov-29 01:31N 54°32' E 018°33'0 0.0
2016-Nov-29 00:31N 54°32' E 018°33'0 0.0
2016-Nov-28 23:31N 54°32' E 018°33'0 0.0
2016-Nov-28 22:28N 54°32' E 018°33'0 0.0
2016-Nov-28 21:31N 54°32' E 018°33'0 0.0
2016-Nov-28 20:31N 54°32' E 018°33'0 0.0
2016-Nov-28 19:31N 54°32' E 018°33'0 0.0
2016-Nov-28 18:31N 54°32' E 018°33'0 0.0
2016-Nov-28 17:31N 54°32' E 018°33'0 0.0
2016-Nov-28 16:31N 54°32' E 018°33'0 0.0
2016-Nov-28 15:31N 54°32' E 018°33'0 0.0
2016-Nov-28 14:31N 54°32' E 018°33'0 0.0
2016-Nov-28 13:31N 54°32' E 018°33'0 0.0
2016-Nov-28 12:31N 54°32' E 018°33'0 0.0
2016-Nov-28 11:31N 54°32' E 018°33'0 0.0
2016-Nov-28 10:31N 54°32' E 018°33'0 0.0
2016-Nov-28 09:31N 54°32' E 018°33'0 0.0
2016-Nov-28 08:31N 54°32' E 018°33'0 0.0
2016-Nov-28 07:31N 54°32' E 018°33'0 0.0
2016-Nov-28 06:31N 54°32' E 018°33'0 0.0
2016-Nov-28 05:31N 54°32' E 018°33'0 0.0
2016-Nov-28 04:31N 54°32' E 018°33'0 0.0
2016-Nov-28 03:31N 54°32' E 018°33'0 0.0
2016-Nov-28 02:31N 54°32' E 018°33'0 0.0
2016-Nov-28 01:31N 54°32' E 018°33'0 0.0
2016-Nov-28 00:31N 54°32' E 018°33'0 0.0
2016-Nov-27 23:31N 54°32' E 018°33'0 0.0
2016-Nov-27 22:31N 54°32' E 018°33'0 0.0
2016-Nov-27 21:31N 54°32' E 018°33'0 0.0
2016-Nov-27 20:31N 54°32' E 018°33'0 0.0
2016-Nov-27 19:31N 54°32' E 018°33'0 0.0
2016-Nov-27 18:31N 54°32' E 018°33'0 0.0
2016-Nov-27 17:31N 54°32' E 018°33'0 0.0
2016-Nov-27 16:31N 54°32' E 018°33'0 0.0
2016-Nov-27 15:31N 54°32' E 018°33'0 0.0
2016-Nov-27 14:31N 54°32' E 018°33'0 0.0
2016-Nov-27 13:31N 54°32' E 018°33'0 0.0
2016-Nov-27 12:31N 54°32' E 018°33'0 0.0
2016-Nov-27 11:31N 54°32' E 018°33'0 0.0
2016-Nov-27 10:31N 54°32' E 018°33'0 0.0
2016-Nov-27 09:31N 54°32' E 018°33'0 0.0
2016-Nov-27 08:31N 54°32' E 018°33'0 0.0
2016-Nov-27 07:31N 54°32' E 018°33'0 0.0
2016-Nov-27 06:31N 54°32' E 018°33'0 0.0
2016-Nov-27 05:31N 54°32' E 018°33'0 0.0
2016-Nov-27 04:31N 54°32' E 018°33'0 0.0
2016-Nov-27 03:31N 54°32' E 018°33'0 0.0
2016-Nov-27 02:31N 54°32' E 018°33'0 0.0
2016-Nov-27 01:31N 54°32' E 018°33'0 0.0
2016-Nov-27 00:31N 54°32' E 018°33'0 0.0
2016-Nov-26 23:31N 54°32' E 018°33'0 0.0
2016-Nov-26 22:31N 54°32' E 018°33'  

Dump ship's entire track history